Time;durP1;ratioP1;P1;durP2;ratioP2;P2;SDS_P1;SDS_P2;PMS_P1;PMS_P2;Temp;Humidity;BMP_temperature;BMP_pressure;BME280_temperature;BME280_humidity;BME280_pressure;Samples;Min_cycle;Max_cycle;Signal;HPM_P1;HPM_P2
2022/11/02 05:28:53;;;;;;;171.30;64.22;;;;;;;;;;5145195;23;20056;-60
2022/11/02 05:31:19;;;;;;;170.70;65.07;;;;;;;;;;4898063;29;20456;-66
2022/11/02 05:33:45;;;;;;;175.95;66.50;;;;;;;;;;4915389;29;20119;-59
2022/11/02 05:36:11;;;;;;;172.02;67.72;;;;;;;;;;4916147;29;20048;-64
2022/11/02 05:38:38;;;;;;;165.60;67.20;;;;;;;;;;4916114;29;20050;-65
2022/11/02 05:41:05;;;;;;;167.25;65.72;;;;;;;;;;4915697;29;20059;-61
2022/11/02 05:43:31;;;;;;;176.90;69.13;;;;;;;;;;4915297;29;20128;-60
2022/11/02 05:45:58;;;;;;;172.95;66.95;;;;;;;;;;4915475;29;20032;-60
2022/11/02 05:48:25;;;;;;;172.25;67.65;;;;;;;;;;4915257;29;20115;-59
2022/11/02 05:50:55;;;;;;;185.52;70.13;;;;;;;;;;4915520;29;20415;-60
2022/11/02 05:53:21;;;;;;;167.52;65.63;;;;;;;;;;4915094;29;20040;-61
2022/11/02 05:55:47;;;;;;;175.95;66.55;;;;;;;;;;4915447;29;20028;-59
2022/11/02 05:58:13;;;;;;;163.65;65.90;;;;;;;;;;4914830;29;20032;-65
2022/11/02 06:00:39;;;;;;;238.95;66.72;;;;;;;;;;4915047;29;20028;-63
2022/11/02 06:03:06;;;;;;;178.40;66.93;;;;;;;;;;4914650;29;20034;-60
2022/11/02 06:05:32;;;;;;;176.75;66.72;;;;;;;;;;4914951;29;20092;-63
2022/11/02 06:07:58;;;;;;;260.15;67.15;;;;;;;;;;4915377;29;20032;-63
2022/11/02 06:10:25;;;;;;;182.48;69.28;;;;;;;;;;4914958;29;20397;-60
2022/11/02 06:12:54;;;;;;;261.13;68.45;;;;;;;;;;4914719;29;20051;-60
2022/11/02 06:15:20;;;;;;;236.63;67.05;;;;;;;;;;4915186;29;20024;-60
2022/11/02 06:17:46;;;;;;;201.27;66.82;;;;;;;;;;4914971;29;20040;-60
2022/11/02 06:20:13;;;;;;;202.93;70.35;;;;;;;;;;4915226;29;20033;-59
2022/11/02 06:22:42;;;;;;;171.38;67.68;;;;;;;;;;4915049;29;20499;-59
2022/11/02 06:25:09;;;;;;;181.55;69.10;;;;;;;;;;4915136;29;20056;-67
2022/11/02 06:27:35;;;;;;;180.90;67.32;;;;;;;;;;4915189;29;20039;-62
2022/11/02 06:30:01;;;;;;;170.45;66.13;;;;;;;;;;4914464;29;20048;-64
2022/11/02 06:32:27;;;;;;;179.07;64.80;;;;;;;;;;4914921;29;20162;-65
2022/11/02 06:34:53;;;;;;;208.57;69.88;;;;;;;;;;4914684;29;20040;-67
2022/11/02 06:37:21;;;;;;;178.45;67.05;;;;;;;;;;4915076;29;20060;-68
2022/11/02 06:39:47;;;;;;;178.30;66.00;;;;;;;;;;4914991;29;20039;-60
2022/11/02 06:42:13;;;;;;;162.70;64.30;;;;;;;;;;4914092;29;20028;-66
2022/11/02 06:44:39;;;;;;;162.07;61.72;;;;;;;;;;4914838;29;20035;-66
2022/11/02 06:47:05;;;;;;;150.60;59.40;;;;;;;;;;4914781;29;20035;-63
2022/11/02 06:49:31;;;;;;;160.60;62.92;;;;;;;;;;4914541;29;20051;-62
2022/11/02 06:51:57;;;;;;;165.88;65.93;;;;;;;;;;4914266;29;20118;-61
2022/11/02 06:54:23;;;;;;;162.23;64.63;;;;;;;;;;4914316;29;20092;-62
2022/11/02 06:56:49;;;;;;;180.38;61.83;;;;;;;;;;4914270;29;20055;-62
2022/11/02 06:59:16;;;;;;;163.52;62.53;;;;;;;;;;4914099;29;20079;-68
2022/11/02 07:01:42;;;;;;;164.85;64.38;;;;;;;;;;4914335;29;20040;-62
2022/11/02 07:04:08;;;;;;;169.93;64.30;;;;;;;;;;4914192;29;20115;-62
2022/11/02 07:06:34;;;;;;;170.23;62.97;;;;;;;;;;4914696;29;20115;-62
2022/11/02 07:09:00;;;;;;;169.35;61.78;;;;;;;;;;4914058;29;20114;-62
2022/11/02 07:11:26;;;;;;;250.30;60.63;;;;;;;;;;4914448;29;20024;-62
2022/11/02 07:13:52;;;;;;;185.73;61.45;;;;;;;;;;4913928;29;20048;-62
2022/11/02 07:16:18;;;;;;;222.50;54.58;;;;;;;;;;4906674;29;20487;-63
2022/11/02 07:18:44;;;;;;;206.82;57.03;;;;;;;;;;4895769;29;20038;-62
2022/11/02 07:21:10;;;;;;;219.90;53.65;;;;;;;;;;4895972;29;20401;-62
2022/11/02 07:23:36;;;;;;;183.35;51.17;;;;;;;;;;4895526;29;20107;-67
2022/11/02 07:26:03;;;;;;;147.93;51.08;;;;;;;;;;4895823;29;20032;-61
2022/11/02 07:28:30;;;;;;;107.53;45.90;;;;;;;;;;4878302;29;20100;-61
2022/11/02 07:30:56;;;;;;;103.80;43.40;;;;;;;;;;4895496;29;20060;-61
2022/11/02 07:33:22;;;;;;;98.53;45.00;;;;;;;;;;4904994;29;20045;-69
2022/11/02 07:35:48;;;;;;;101.10;45.05;;;;;;;;;;4903503;29;20536;-61
2022/11/02 07:38:14;;;;;;;169.52;42.55;;;;;;;;;;4904884;29;20028;-66
2022/11/02 07:40:40;;;;;;;102.63;43.03;;;;;;;;;;4902929;29;20025;-61
2022/11/02 07:43:06;;;;;;;94.60;43.20;;;;;;;;;;4894915;29;20598;-62
2022/11/02 07:45:32;;;;;;;102.13;43.50;;;;;;;;;;4895102;29;20076;-61
2022/11/02 07:47:58;;;;;;;107.43;41.17;;;;;;;;;;4909947;29;20476;-61
2022/11/02 07:50:28;;;;;;;109.70;39.80;;;;;;;;;;4913867;29;20040;-61
2022/11/02 07:52:55;;;;;;;95.43;39.08;;;;;;;;;;4914936;29;20186;-61
2022/11/02 07:55:28;;;;;;;125.03;33.72;;;;;;;;;;4917294;29;20098;-63
2022/11/02 07:57:55;;;;;;;140.43;33.13;;;;;;;;;;4917605;29;20035;-63
2022/11/02 08:00:21;;;;;;;152.73;32.55;;;;;;;;;;4917112;29;20052;-62
2022/11/02 08:02:47;;;;;;;130.68;28.33;;;;;;;;;;4917582;29;20036;-61
2022/11/02 08:05:14;;;;;;;136.48;34.15;;;;;;;;;;4917421;29;20499;-61
2022/11/02 08:07:40;;;;;;;120.03;34.65;;;;;;;;;;4917258;29;20043;-61
2022/11/02 08:10:06;;;;;;;115.00;36.28;;;;;;;;;;4917283;29;20059;-68
2022/11/02 08:12:32;;;;;;;175.45;34.17;;;;;;;;;;4916724;29;20457;-64
2022/11/02 08:14:58;;;;;;;140.35;36.45;;;;;;;;;;4917052;29;20087;-62
2022/11/02 08:17:24;;;;;;;97.22;37.33;;;;;;;;;;4916605;29;20036;-62
2022/11/02 08:19:50;;;;;;;89.15;36.45;;;;;;;;;;4916964;29;20453;-63
2022/11/02 08:22:16;;;;;;;96.72;36.70;;;;;;;;;;4917006;29;20127;-66
2022/11/02 08:24:42;;;;;;;83.72;35.85;;;;;;;;;;4917069;29;20040;-61
2022/11/02 08:27:08;;;;;;;90.85;36.25;;;;;;;;;;4916854;29;20511;-63
2022/11/02 08:29:35;;;;;;;104.85;34.30;;;;;;;;;;4916050;29;20060;-60
2022/11/02 08:32:02;;;;;;;94.93;35.20;;;;;;;;;;4916816;29;20041;-65
2022/11/02 08:34:28;;;;;;;87.50;35.58;;;;;;;;;;4917093;29;20456;-62
2022/11/02 08:36:54;;;;;;;86.07;36.58;;;;;;;;;;4916663;29;20029;-61
2022/11/02 08:39:20;;;;;;;96.40;37.15;;;;;;;;;;4916510;29;20032;-70
2022/11/02 08:41:46;;;;;;;89.55;36.95;;;;;;;;;;4916506;29;20476;-67
2022/11/02 08:44:13;;;;;;;94.10;36.35;;;;;;;;;;4916128;29;20032;-62
2022/11/02 08:46:39;;;;;;;87.47;36.42;;;;;;;;;;4916617;29;20033;-61
2022/11/02 08:49:05;;;;;;;86.85;36.17;;;;;;;;;;4916957;29;20032;-67
2022/11/02 08:51:31;;;;;;;93.40;36.95;;;;;;;;;;4917097;29;20028;-61
2022/11/02 08:53:57;;;;;;;89.90;34.70;;;;;;;;;;4916266;29;20071;-61
2022/11/02 08:56:23;;;;;;;91.32;35.97;;;;;;;;;;4916665;29;20181;-62
2022/11/02 08:58:49;;;;;;;91.03;35.75;;;;;;;;;;4916051;29;20373;-61
2022/11/02 09:01:15;;;;;;;91.80;35.38;;;;;;;;;;4916256;29;20044;-62
2022/11/02 09:03:41;;;;;;;87.65;36.45;;;;;;;;;;4915704;29;20123;-62
2022/11/02 09:06:07;;;;;;;90.70;37.50;;;;;;;;;;4916329;29;20120;-63
2022/11/02 09:08:34;;;;;;;95.65;37.35;;;;;;;;;;4916175;29;20380;-62
2022/11/02 09:11:01;;;;;;;99.32;37.95;;;;;;;;;;4916317;29;20468;-68
2022/11/02 09:13:27;;;;;;;90.55;37.50;;;;;;;;;;4916108;29;20047;-68
2022/11/02 09:15:54;;;;;;;99.13;38.67;;;;;;;;;;4916235;29;20028;-63
2022/11/02 09:18:20;;;;;;;97.53;39.40;;;;;;;;;;4916080;29;20369;-68
2022/11/02 09:20:47;;;;;;;98.85;40.08;;;;;;;;;;4916155;29;20487;-61
2022/11/02 09:23:14;;;;;;;101.25;40.75;;;;;;;;;;4916000;29;20488;-66
2022/11/02 09:25:40;;;;;;;109.38;41.72;;;;;;;;;;4916162;29;20043;-64
2022/11/02 09:28:07;;;;;;;98.97;39.22;;;;;;;;;;4915743;29;20032;-62
2022/11/02 09:30:33;;;;;;;100.15;40.83;;;;;;;;;;4911189;29;20139;-67
2022/11/02 09:33:00;;;;;;;103.13;41.85;;;;;;;;;;4906874;29;20044;-66
2022/11/02 09:35:28;;;;;;;104.13;42.22;;;;;;;;;;4898419;29;20024;-68
2022/11/02 09:37:54;;;;;;;103.53;41.60;;;;;;;;;;4895404;29;20040;-64
2022/11/02 09:40:21;;;;;;;105.93;43.67;;;;;;;;;;4896742;29;20037;-62
2022/11/02 09:42:54;;;;;;;107.18;42.05;;;;;;;;;;4895409;29;20040;-61
2022/11/02 09:45:20;;;;;;;100.90;41.83;;;;;;;;;;4895434;29;20104;-61
2022/11/02 09:47:49;;;;;;;109.75;42.90;;;;;;;;;;4896050;29;20025;-68
2022/11/02 09:50:38;;;;;;;103.85;42.10;;;;;;;;;;4896573;29;20037;-62
2022/11/02 09:53:06;;;;;;;105.63;41.15;;;;;;;;;;4895653;29;20036;-67
2022/11/02 09:55:35;;;;;;;104.32;41.30;;;;;;;;;;4897197;29;20455;-68
2022/11/02 09:58:12;;;;;;;96.35;41.80;;;;;;;;;;4896233;29;20128;-62
2022/11/02 10:00:40;;;;;;;113.28;46.13;;;;;;;;;;4896299;29;20025;-64
2022/11/02 10:03:08;;;;;;;110.47;44.08;;;;;;;;;;4896174;29;20036;-62
2022/11/02 10:05:41;;;;;;;103.57;43.03;;;;;;;;;;4895667;29;20040;-62
2022/11/02 10:08:07;;;;;;;106.85;42.75;;;;;;;;;;4896091;29;20031;-71
2022/11/02 10:10:59;;;;;;;106.47;42.47;;;;;;;;;;4895905;29;20033;-62
2022/11/02 10:13:46;;;;;;;95.35;39.80;;;;;;;;;;4892274;29;20676;-70
2022/11/02 10:16:12;;;;;;;96.80;40.45;;;;;;;;;;4894895;29;20567;-63
2022/11/02 10:18:39;;;;;;;110.85;43.40;;;;;;;;;;4895601;29;20587;-63
2022/11/02 10:21:25;;;;;;;105.53;42.28;;;;;;;;;;4878873;29;20040;-64
2022/11/02 10:23:52;;;;;;;105.82;42.53;;;;;;;;;;4895887;29;20143;-64
2022/11/02 10:26:23;;;;;;;108.72;45.55;;;;;;;;;;4896204;29;20052;-64
2022/11/02 10:28:53;;;;;;;115.50;45.83;;;;;;;;;;4895340;29;20130;-69
2022/11/02 10:31:40;;;;;;;105.25;42.42;;;;;;;;;;4895999;29;20039;-63
2022/11/02 10:34:29;;;;;;;114.65;45.22;;;;;;;;;;4896089;29;20488;-68
2022/11/02 10:36:54;;;;;;;114.65;46.88;;;;;;;;;;4819755;29;20120;-71
2022/11/02 10:39:23;;;;;;;119.82;46.67;;;;;;;;;;4819828;29;20078;-64
2022/11/02 10:42:08;;;;;;;123.45;48.55;;;;;;;;;;4819782;29;20134;-62
2022/11/02 10:44:43;;;;;;;119.75;50.05;;;;;;;;;;4819629;29;20042;-63
2022/11/02 10:47:21;;;;;;;129.00;54.50;;;;;;;;;;4819862;29;20483;-64
2022/11/02 10:49:49;;;;;;;129.82;51.90;;;;;;;;;;4819966;29;20484;-70
2022/11/02 10:52:16;;;;;;;140.77;59.55;;;;;;;;;;4819908;29;20087;-70
2022/11/02 10:54:42;;;;;;;130.80;56.20;;;;;;;;;;4818905;29;20419;-67
2022/11/02 10:57:12;;;;;;;129.48;54.97;;;;;;;;;;4820092;29;20476;-62
2022/11/02 10:59:38;;;;;;;121.20;54.05;;;;;;;;;;4819760;29;20082;-69
2022/11/02 11:02:14;;;;;;;110.05;48.58;;;;;;;;;;4819586;29;20042;-66
2022/11/02 11:04:41;;;;;;;94.32;41.90;;;;;;;;;;4820136;29;20544;-64
2022/11/02 11:07:13;;;;;;;97.35;42.40;;;;;;;;;;4819667;29;20038;-63
2022/11/02 11:09:46;;;;;;;92.22;40.92;;;;;;;;;;4819874;29;20133;-70
2022/11/02 11:12:25;;;;;;;89.72;39.72;;;;;;;;;;4819602;29;20113;-61
2022/11/02 11:14:52;;;;;;;91.72;41.55;;;;;;;;;;4887129;29;20452;-70
2022/11/02 11:17:22;;;;;;;90.07;42.05;;;;;;;;;;4895187;29;20060;-71
2022/11/02 11:19:50;;;;;;;94.13;41.33;;;;;;;;;;4895513;29;20037;-64
2022/11/02 11:22:22;;;;;;;91.63;40.47;;;;;;;;;;4895319;29;20536;-63
2022/11/02 11:24:48;;;;;;;;;;;;;;;;;;4895860;29;20051;-62
2022/11/02 11:27:14;;;;;;;90.78;39.92;;;;;;;;;;4895973;29;19907;-66
2022/11/02 11:29:45;;;;;;;87.32;40.00;;;;;;;;;;4898563;29;20083;-71
2022/11/02 11:32:20;;;;;;;91.03;40.78;;;;;;;;;;4899085;29;20490;-70
2022/11/02 11:34:50;;;;;;;94.97;40.47;;;;;;;;;;4898855;29;20041;-64
2022/11/02 11:37:16;;;;;;;88.88;39.63;;;;;;;;;;4900318;29;20057;-63
2022/11/02 11:39:43;;;;;;;85.00;39.22;;;;;;;;;;4917894;29;20032;-63
2022/11/02 11:42:14;;;;;;;86.15;39.78;;;;;;;;;;4917650;29;20039;-63
2022/11/02 11:44:43;;;;;;;94.68;42.70;;;;;;;;;;4917784;29;20084;-63
2022/11/02 11:47:10;;;;;;;94.00;43.25;;;;;;;;;;4917905;29;20034;-61
2022/11/02 11:49:47;;;;;;;86.93;38.97;;;;;;;;;;4917712;29;20035;-62
2022/11/02 11:52:16;;;;;;;91.22;40.22;;;;;;;;;;4910655;29;20040;-63
2022/11/02 11:54:51;;;;;;;90.03;41.78;;;;;;;;;;4905052;29;20052;-62
2022/11/02 11:57:23;;;;;;;98.53;45.20;;;;;;;;;;4907082;29;20370;-63
2022/11/02 11:59:51;;;;;;;98.05;44.92;;;;;;;;;;4905358;29;20103;-63
2022/11/02 12:02:25;;;;;;;104.22;44.95;;;;;;;;;;4907609;29;20028;-64
2022/11/02 12:04:52;;;;;;;101.88;43.70;;;;;;;;;;4905681;29;20024;-65
2022/11/02 12:07:29;;;;;;;109.07;46.08;;;;;;;;;;4908009;29;20392;-63
2022/11/02 12:10:14;;;;;;;101.82;45.67;;;;;;;;;;4906161;29;20472;-63
2022/11/02 12:12:49;;;;;;;102.32;45.58;;;;;;;;;;4904278;29;20083;-60
2022/11/02 12:15:18;;;;;;;102.50;45.70;;;;;;;;;;4902996;29;20028;-62
2022/11/02 12:17:44;;;;;;;101.88;46.63;;;;;;;;;;4905689;29;20032;-68
2022/11/02 12:20:16;;;;;;;107.40;47.65;;;;;;;;;;4907779;29;20035;-63
2022/11/02 12:22:45;;;;;;;111.93;48.72;;;;;;;;;;4904455;29;20039;-66
2022/11/02 12:25:11;;;;;;;109.53;48.80;;;;;;;;;;4909198;29;20043;-62
2022/11/02 12:27:55;;;;;;;113.45;47.67;;;;;;;;;;4906023;29;20118;-61
2022/11/02 12:30:24;;;;;;;104.97;46.63;;;;;;;;;;4906030;29;20139;-61
2022/11/02 12:32:50;;;;;;;107.07;47.60;;;;;;;;;;4904468;29;20512;-65
2022/11/02 12:35:25;;;;;;;112.40;48.33;;;;;;;;;;4901162;29;20472;-60
2022/11/02 12:37:54;;;;;;;103.00;47.65;;;;;;;;;;4904888;29;20366;-63
2022/11/02 12:40:25;;;;;;;108.68;48.40;;;;;;;;;;4896474;29;20029;-63
2022/11/02 12:42:54;;;;;;;104.53;48.05;;;;;;;;;;4905169;29;20031;-63
2022/11/02 12:45:24;;;;;;;103.20;47.53;;;;;;;;;;4905105;29;20040;-62
2022/11/02 12:48:12;;;;;;;109.82;46.20;;;;;;;;;;4907179;29;20081;-68
2022/11/02 12:50:54;;;;;;;109.10;47.28;;;;;;;;;;4902732;29;20032;-71
2022/11/02 12:53:32;;;;;;;111.43;49.35;;;;;;;;;;4905774;29;20052;-65
2022/11/02 12:56:00;;;;;;;114.68;49.38;;;;;;;;;;4905147;29;20039;-71
2022/11/02 12:58:32;;;;;;;110.60;49.05;;;;;;;;;;4907612;29;20044;-62
2022/11/02 13:00:58;;;;;;;;;;;;;;;;;;4906918;29;20115;-67
2022/11/02 13:03:27;;;;;;;115.43;50.58;;;;;;;;;;4903409;29;19959;-68
2022/11/02 13:05:59;;;;;;;119.00;51.30;;;;;;;;;;4896916;29;20071;-64
2022/11/02 13:08:34;;;;;;;117.82;51.38;;;;;;;;;;4897609;29;20076;-62
2022/11/02 13:11:01;;;;;;;121.13;51.45;;;;;;;;;;4896760;29;20033;-67
2022/11/02 13:13:31;;;;;;;116.55;50.75;;;;;;;;;;4896940;29;20060;-63
2022/11/02 13:15:59;;;;;;;110.28;48.10;;;;;;;;;;4896555;29;20033;-62
2022/11/02 13:18:28;;;;;;;115.13;50.97;;;;;;;;;;4896842;29;20036;-64
2022/11/02 13:20:59;;;;;;;122.60;51.08;;;;;;;;;;4896797;29;20040;-62
2022/11/02 13:23:47;;;;;;;118.28;49.75;;;;;;;;;;4879094;29;20428;-63
2022/11/02 13:26:36;;;;;;;126.40;52.42;;;;;;;;;;4897058;29;20059;-65
2022/11/02 13:29:11;;;;;;;129.07;57.63;;;;;;;;;;4896575;29;20060;-63
2022/11/02 13:31:39;;;;;;;114.68;49.85;;;;;;;;;;4896514;29;20080;-66
2022/11/02 13:34:09;;;;;;;119.38;50.17;;;;;;;;;;4896822;29;20048;-62
2022/11/02 13:36:36;;;;;;;117.60;49.58;;;;;;;;;;4896891;29;20076;-63
2022/11/02 13:39:09;;;;;;;122.25;48.63;;;;;;;;;;4896398;29;20051;-65
2022/11/02 13:41:53;;;;;;;124.97;52.10;;;;;;;;;;4896636;29;20032;-70
2022/11/02 13:44:25;;;;;;;125.18;51.05;;;;;;;;;;4896980;29;20036;-63
2022/11/02 13:47:08;;;;;;;125.63;50.30;;;;;;;;;;4896136;29;20096;-63
2022/11/02 13:49:36;;;;;;;124.65;50.30;;;;;;;;;;4896113;29;20033;-65
2022/11/02 13:52:16;;;;;;;126.50;48.00;;;;;;;;;;4896189;29;20029;-65
2022/11/02 13:54:44;;;;;;;132.18;50.90;;;;;;;;;;4896461;29;20064;-73
2022/11/02 13:57:29;;;;;;;124.05;49.05;;;;;;;;;;4896683;29;20032;-63
2022/11/02 13:59:55;;;;;;;132.48;50.42;;;;;;;;;;4896129;29;20088;-62
2022/11/02 14:02:23;;;;;;;123.65;49.28;;;;;;;;;;4896153;29;20040;-69
2022/11/02 14:04:49;;;;;;;115.32;43.70;;;;;;;;;;4896326;29;20025;-62
2022/11/02 14:07:34;;;;;;;104.95;43.70;;;;;;;;;;4896045;29;20468;-65
2022/11/02 14:10:15;;;;;;;108.88;40.65;;;;;;;;;;4895970;29;20029;-64
2022/11/02 14:12:50;;;;;;;109.30;41.97;;;;;;;;;;4895591;29;20123;-61
2022/11/02 14:15:16;;;;;;;119.10;44.45;;;;;;;;;;4895800;29;20081;-63
2022/11/02 14:17:55;;;;;;;109.18;45.22;;;;;;;;;;4910347;29;20115;-63
2022/11/02 14:20:33;;;;;;;111.40;41.90;;;;;;;;;;4914819;29;20032;-63
2022/11/02 14:23:12;;;;;;;108.97;43.92;;;;;;;;;;4913536;29;20392;-63
2022/11/02 14:25:45;;;;;;;98.70;40.05;;;;;;;;;;4900403;29;20047;-62
2022/11/02 14:28:11;;;;;;;;;;;;;;;;;;4904969;29;20504;-61
2022/11/02 14:30:42;;;;;;;64.50;30.58;;;;;;;;;;4902838;29;19924;-62
2022/11/02 14:33:13;;;;;;;57.75;28.98;;;;;;;;;;4903974;29;20036;-63
2022/11/02 14:35:49;;;;;;;58.55;28.35;;;;;;;;;;4903170;29;20031;-62
2022/11/02 14:38:17;;;;;;;57.95;28.85;;;;;;;;;;4905016;29;20070;-63
2022/11/02 14:40:57;;;;;;;58.05;29.98;;;;;;;;;;4903579;29;20021;-62
2022/11/02 14:43:41;;;;;;;58.95;29.83;;;;;;;;;;4903560;29;20032;-62
2022/11/02 14:46:30;;;;;;;53.33;28.02;;;;;;;;;;4904165;29;20024;-62
2022/11/02 14:48:58;;;;;;;59.00;28.83;;;;;;;;;;4894608;29;20047;-64
2022/11/02 14:51:26;;;;;;;54.63;28.40;;;;;;;;;;4903539;29;20025;-62
2022/11/02 14:53:56;;;;;;;53.28;26.63;;;;;;;;;;4903142;29;20661;-61
2022/11/02 14:56:23;;;;;;;49.30;26.73;;;;;;;;;;4900349;29;20025;-61
2022/11/02 14:58:52;;;;;;;44.45;24.85;;;;;;;;;;4909342;29;20032;-65
2022/11/02 15:01:19;;;;;;;47.63;24.25;;;;;;;;;;4914616;29;20031;-63
2022/11/02 15:03:47;;;;;;;47.13;23.65;;;;;;;;;;4917739;29;20455;-63
2022/11/02 15:06:24;;;;;;;39.28;22.98;;;;;;;;;;4903621;29;20480;-63
2022/11/02 15:08:50;;;;;;;43.67;22.65;;;;;;;;;;4908441;29;20111;-63
2022/11/02 15:11:35;;;;;;;45.72;22.10;;;;;;;;;;4918229;29;20111;-62
2022/11/02 15:14:01;;;;;;;44.78;23.23;;;;;;;;;;4918137;29;20419;-63
2022/11/02 15:16:38;;;;;;;40.20;23.17;;;;;;;;;;4918125;29;20032;-63
2022/11/02 15:19:30;;;;;;;40.95;21.33;;;;;;;;;;4917520;29;20028;-64
2022/11/02 15:22:16;;;;;;;42.30;22.02;;;;;;;;;;4914505;29;20048;-62
2022/11/02 15:24:43;;;;;;;37.15;19.80;;;;;;;;;;4917885;29;20115;-65
2022/11/02 15:27:11;;;;;;;37.50;19.70;;;;;;;;;;4917734;29;20104;-62
2022/11/02 15:29:43;;;;;;;33.85;20.02;;;;;;;;;;4917069;29;20056;-63
2022/11/02 15:32:14;;;;;;;42.65;22.33;;;;;;;;;;4917649;29;20082;-64
2022/11/02 15:34:43;;;;;;;48.97;24.77;;;;;;;;;;4917128;29;20209;-63
2022/11/02 15:37:17;;;;;;;41.50;21.27;;;;;;;;;;4903104;29;20135;-63
2022/11/02 15:39:49;;;;;;;75.50;35.17;;;;;;;;;;4899019;29;20429;-63
2022/11/02 15:42:21;;;;;;;42.20;21.70;;;;;;;;;;4905357;29;20032;-66
2022/11/02 15:44:47;;;;;;;42.67;22.35;;;;;;;;;;4890780;29;20054;-61
2022/11/02 15:47:13;;;;;;;49.40;27.65;;;;;;;;;;4909023;29;20490;-62
2022/11/02 15:49:57;;;;;;;53.33;26.85;;;;;;;;;;4900378;29;20040;-63
2022/11/02 15:52:26;;;;;;;50.05;24.92;;;;;;;;;;4898985;29;20055;-62
2022/11/02 15:54:55;;;;;;;46.10;21.90;;;;;;;;;;4899035;29;20547;-64
2022/11/02 15:57:40;;;;;;;62.53;29.40;;;;;;;;;;4900469;29;20112;-63
2022/11/02 16:00:06;;;;;;;47.80;22.05;;;;;;;;;;4906481;29;20145;-69
2022/11/02 16:02:34;;;;;;;39.65;21.67;;;;;;;;;;4907362;29;20047;-62
2022/11/02 16:05:01;;;;;;;43.53;20.05;;;;;;;;;;4906825;29;20031;-65
2022/11/02 16:07:29;;;;;;;41.85;21.08;;;;;;;;;;4905946;29;20550;-62
2022/11/02 16:10:09;;;;;;;48.80;23.13;;;;;;;;;;4907866;29;20024;-62
2022/11/02 16:12:35;;;;;;;38.63;18.73;;;;;;;;;;4906170;29;20039;-62
2022/11/02 16:15:09;;;;;;;40.60;20.75;;;;;;;;;;4904717;29;20016;-63
2022/11/02 16:17:35;;;;;;;48.33;25.40;;;;;;;;;;4898671;29;20064;-62
2022/11/02 16:20:15;;;;;;;46.30;23.15;;;;;;;;;;4905273;29;20510;-63
2022/11/02 16:23:02;;;;;;;47.28;22.83;;;;;;;;;;4906624;29;20021;-63
2022/11/02 16:25:36;;;;;;;49.83;24.65;;;;;;;;;;4907112;29;20031;-64
2022/11/02 16:28:21;;;;;;;44.03;22.00;;;;;;;;;;4906584;29;20041;-63
2022/11/02 16:31:02;;;;;;;47.15;22.40;;;;;;;;;;4907246;29;20052;-67
2022/11/02 16:33:30;;;;;;;56.22;23.92;;;;;;;;;;4907303;29;20400;-67
2022/11/02 16:35:56;;;;;;;55.00;24.13;;;;;;;;;;4905897;29;20032;-62
2022/11/02 16:38:23;;;;;;;52.40;24.45;;;;;;;;;;4905978;29;20245;-65
2022/11/02 16:40:49;;;;;;;55.33;25.75;;;;;;;;;;4906861;29;20020;-64
2022/11/02 16:43:15;;;;;;;54.47;25.63;;;;;;;;;;4907857;29;20432;-64
2022/11/02 16:45:42;;;;;;;54.38;25.13;;;;;;;;;;4902891;29;20025;-69
2022/11/02 16:48:28;;;;;;;54.10;23.98;;;;;;;;;;4898791;29;20023;-67
2022/11/02 16:51:12;;;;;;;58.55;26.20;;;;;;;;;;4904872;29;20054;-67
2022/11/02 16:53:40;;;;;;;58.50;27.48;;;;;;;;;;4899606;29;20347;-68
2022/11/02 16:56:14;;;;;;;58.35;27.27;;;;;;;;;;4898097;29;20029;-64
2022/11/02 16:58:47;;;;;;;59.60;27.13;;;;;;;;;;4897482;29;20500;-69
2022/11/02 17:01:21;;;;;;;60.95;27.40;;;;;;;;;;4897687;29;20051;-68
2022/11/02 17:03:48;;;;;;;58.95;25.50;;;;;;;;;;4897595;29;20086;-66
2022/11/02 17:06:15;;;;;;;62.53;28.75;;;;;;;;;;4894295;29;20074;-67
2022/11/02 17:08:42;;;;;;;82.38;35.90;;;;;;;;;;4916583;29;20040;-67
2022/11/02 17:11:13;;;;;;;98.82;44.33;;;;;;;;;;4916545;29;20032;-68
2022/11/02 17:13:43;;;;;;;97.35;49.75;;;;;;;;;;4907835;29;20084;-66
2022/11/02 17:16:11;;;;;;;59.67;26.77;;;;;;;;;;4905814;29;20096;-67
2022/11/02 17:18:37;;;;;;;71.50;30.40;;;;;;;;;;4901090;29;20100;-66
2022/11/02 17:21:12;;;;;;;58.13;25.85;;;;;;;;;;4896773;29;20493;-69
2022/11/02 17:23:48;;;;;;;62.90;29.15;;;;;;;;;;4897182;29;20103;-65
2022/11/02 17:26:25;;;;;;;64.80;27.95;;;;;;;;;;4898494;29;20035;-67
2022/11/02 17:28:51;;;;;;;65.50;28.05;;;;;;;;;;4906020;29;20503;-66
2022/11/02 17:31:17;;;;;;;67.50;29.65;;;;;;;;;;4904928;29;21397;-67
2022/11/02 17:33:44;;;;;;;68.97;30.33;;;;;;;;;;4906606;29;20040;-68
2022/11/02 17:36:10;;;;;;;64.38;29.38;;;;;;;;;;4902961;29;20444;-66
2022/11/02 17:38:36;;;;;;;76.38;32.63;;;;;;;;;;4912847;29;20028;-68
2022/11/02 17:42:57;;;;;;;69.22;29.58;;;;;;;;;;4915915;29;20040;-67
2022/11/02 17:43:48;;;;;;;76.75;32.65;;;;;;;;;;4901878;29;20131;-66
2022/11/02 17:46:14;;;;;;;83.07;35.53;;;;;;;;;;4896525;29;20028;-66
2022/11/02 17:48:40;;;;;;;110.88;50.65;;;;;;;;;;4896017;29;20037;-66
2022/11/02 17:51:11;;;;;;;102.28;46.25;;;;;;;;;;4896391;29;20043;-66
2022/11/02 17:53:38;;;;;;;87.05;35.75;;;;;;;;;;4907995;29;20147;-67
2022/11/02 17:56:04;;;;;;;89.60;35.47;;;;;;;;;;4915302;29;20036;-67
2022/11/02 17:58:30;;;;;;;77.80;32.88;;;;;;;;;;4911386;29;20510;-67
2022/11/02 18:00:56;;;;;;;75.20;31.63;;;;;;;;;;4902517;29;20061;-65
2022/11/02 18:03:24;;;;;;;74.38;31.50;;;;;;;;;;4901523;29;20052;-63
2022/11/02 18:05:51;;;;;;;66.85;29.77;;;;;;;;;;4915448;29;20361;-67
2022/11/02 18:08:17;;;;;;;61.83;26.42;;;;;;;;;;4914907;29;20079;-66
2022/11/02 18:10:45;;;;;;;62.75;27.25;;;;;;;;;;4914896;29;20081;-63
2022/11/02 18:13:12;;;;;;;56.83;26.13;;;;;;;;;;4914745;29;20476;-63
2022/11/02 18:15:38;;;;;;;65.38;29.63;;;;;;;;;;4914931;29;20028;-67
2022/11/02 18:18:04;;;;;;;70.85;31.00;;;;;;;;;;4915050;29;20421;-62
2022/11/02 18:20:32;;;;;;;67.93;29.08;;;;;;;;;;4915216;29;20536;-67
2022/11/02 18:22:59;;;;;;;63.20;29.52;;;;;;;;;;4915161;29;20031;-65
2022/11/02 18:25:25;;;;;;;70.57;31.15;;;;;;;;;;4915112;29;20023;-65
2022/11/02 18:27:52;;;;;;;66.07;29.35;;;;;;;;;;4914574;29;20036;-65
2022/11/02 18:30:18;;;;;;;64.93;29.83;;;;;;;;;;4914003;29;20381;-68
2022/11/02 18:32:45;;;;;;;66.45;27.45;;;;;;;;;;4902147;29;20750;-65
2022/11/02 18:35:13;;;;;;;59.45;26.60;;;;;;;;;;4895320;29;20033;-64
2022/11/02 18:37:40;;;;;;;65.15;29.45;;;;;;;;;;4895065;29;20421;-68
2022/11/02 18:40:07;;;;;;;72.05;31.30;;;;;;;;;;4895735;29;20092;-67
2022/11/02 18:42:36;;;;;;;78.75;35.38;;;;;;;;;;4895530;29;20450;-65
2022/11/02 18:45:03;;;;;;;73.60;32.55;;;;;;;;;;4881401;29;20036;-72
2022/11/02 18:47:29;;;;;;;75.25;35.03;;;;;;;;;;4895625;29;20029;-71
2022/11/02 18:49:55;;;;;;;77.68;35.03;;;;;;;;;;4895506;29;20029;-68
2022/11/02 18:52:21;;;;;;;74.65;35.50;;;;;;;;;;4895635;29;20033;-67
2022/11/02 18:54:47;;;;;;;74.97;36.20;;;;;;;;;;4895226;29;20043;-66
2022/11/02 18:57:13;;;;;;;68.45;34.90;;;;;;;;;;4897422;29;20106;-69
2022/11/02 18:59:39;;;;;;;71.13;32.92;;;;;;;;;;4905660;29;20060;-63
2022/11/02 19:02:05;;;;;;;72.95;35.33;;;;;;;;;;4904667;29;20071;-68
2022/11/02 19:04:32;;;;;;;86.75;39.85;;;;;;;;;;4902047;29;20032;-65
2022/11/02 19:09:44;;;;;;;89.82;42.63;;;;;;;;;;4911935;29;20408;-70
2022/11/02 19:12:21;;;;;;;85.93;41.17;;;;;;;;;;4914764;29;20108;-65
2022/11/02 19:14:52;;;;;;;88.72;42.63;;;;;;;;;;4914034;29;20032;-67
2022/11/02 19:17:18;;;;;;;89.15;42.75;;;;;;;;;;4914264;29;20031;-67
2022/11/02 19:19:45;;;;;;;94.20;43.35;;;;;;;;;;4914125;29;20064;-66
2022/11/02 19:22:14;;;;;;;95.00;44.95;;;;;;;;;;4914757;29;20024;-67
2022/11/02 19:24:41;;;;;;;107.47;45.20;;;;;;;;;;4913881;29;20032;-66
2022/11/02 19:27:11;;;;;;;101.47;44.80;;;;;;;;;;4913751;29;20432;-69
2022/11/02 19:29:37;;;;;;;94.25;43.60;;;;;;;;;;4913864;29;20385;-70
2022/11/02 19:32:03;;;;;;;85.05;41.03;;;;;;;;;;4913968;29;20496;-66
2022/11/02 19:34:29;;;;;;;94.03;40.55;;;;;;;;;;4913714;29;20035;-66
2022/11/02 19:36:55;;;;;;;82.93;37.20;;;;;;;;;;4913956;29;20024;-70
2022/11/02 19:39:21;;;;;;;72.85;34.53;;;;;;;;;;4913895;29;20384;-67
2022/11/02 19:41:50;;;;;;;76.13;34.63;;;;;;;;;;4913684;29;20063;-70
2022/11/02 19:44:16;;;;;;;78.28;36.28;;;;;;;;;;4913634;29;20123;-67
2022/11/02 19:46:43;;;;;;;84.70;37.00;;;;;;;;;;4909962;29;20347;-70
2022/11/02 19:49:09;;;;;;;73.90;35.00;;;;;;;;;;4903929;29;20556;-71
2022/11/02 19:51:35;;;;;;;75.18;34.65;;;;;;;;;;4906403;29;20079;-71
2022/11/02 19:54:01;;;;;;;75.38;34.67;;;;;;;;;;4907622;29;20508;-70
2022/11/02 19:56:28;;;;;;;85.45;36.50;;;;;;;;;;4906423;29;20571;-70